San Anselmo, CA

11:03 PM PDT on September 15, 2014 (GMT -0700)
Belle Avenue | Change Station
CLOSE
Current Station
Personal Weather Station
Location: San Rafael, CA
Elevation: 256 ft
Nearby Weather Stations

Elev 256 ft 37.97 °N, 122.51 °W | Updated 29 seconds ago

Clear
Clear
63.9 °F
Feels Like 63.9 °F
N
0.0
Wind Variable Wind from SSW
Gusts 0.0 mph

Today
High -- | Low -- °F
--% Chance of Precip.
Yesterday
High -- | Low -- °F
Precip. -- in
6:51 AM 7:17 PM
Waning Gibbous, 48% visible
Pressure 29.95 in
Visibility 7.0 miles
Clouds Overcast 600 ft
Dew Point 46 °F
Humidity 53%
Rainfall 0.00 in
Snow Depth 0 in , 1 in , 0 in
UV 0 out of 12
Pollen 5.40 out of 12
PM2.5 Moderate
Flu Activity Not available.
METAR KO69 160555Z AUTO 31005KT 7SM OVC006 15/14 A2995 RMK AO1

More Conditions Fewer Conditions

Pressure 29.95 in
Visibility 7.0 miles
Clouds Overcast 600 ft
Dew Point 46 °F
Humidity 53%
Rainfall 0.00 in
Snow Depth 0 in , 1 in , 0 in
UV 0 out of 12
Pollen 5.40 out of 12
PM2.5 Moderate
Flu Activity Not available.
METAR KO69 160555Z AUTO 31005KT 7SM OVC006 15/14 A2995 RMK AO1

More Conditions Fewer Conditions

10-Day Weather Forecast

Almanac

Astronomy

Sep. 15, 2014 Rise Set
Actual Time 6:51 AM PDT 7:17 PM PDT
Civil Twilight 6:25 AM PDT 7:44 PM PDT
Nautical Twilight 5:54 AM PDT 8:15 PM PDT
Astronomical Twilight 5:22 AM PDT 8:46 PM PDT
Moon No Moon Rise 1:50 PM PDT (9/15)
Length of Visible Light 13h 18m
Length of Day
12h 25m
Tomorrow will be 2m 25s shorter.
Waning Gibbous, 48% of the Moon is Illuminated
Sep 16
Waning Gibbous
Sep 24
New
Oct 1
First Quarter
Oct 8
Full
Oct 15
Last Quarter

Yesterday's Extremes

State Highs State Lows

Community

WunderPhotos

Upload Photos

1,753,702 photos uploaded!

Nearby

Air Quality

  Air Quality AQ Index Pollutant
Yesterday Good
PM2.5
Yesterday Good
OZONE
Current Moderate
PM2.5
Monday Good
PM2.5
Tuesday Good
PM2.5
Wednesday Good
PM2.5
Thursday Good
PM2.5
Friday Good
PM2.5
Saturday Good
PM2.5

Snow Depth

Station Depth Elevation
Cedar Pass 0 in 7100 ft
Spratt Creek 1 in 6200 ft
Monitor Pass 0 in 8350 ft
CSS Lab 2 in 6900 ft
Adin Mountain 1 in 6200 ft

Earthquake Activity

City Distance Mag. Time & Date
Covelo, California 127 miles 3.3 1:17 PM PDT
2014-09-14
Cobb, California 60 miles 2.7 11:07 AM PDT
2014-09-14
Minimum magnitude displayed is 2.5.

Coastal Water Temperatures

Place Temperature
San Francisco, CA 64.0 °F
Richmond, CA 69.1 °F
Port Chicago, CA 70.0 °F

Nearby Weather Stations